createdAt,value
2023-02-11T00:06:48.997Z,6.77
2023-02-11T00:21:50.477Z,6.40
2023-02-11T00:36:51.941Z,5.53
2023-02-11T00:51:53.485Z,5.20
2023-02-11T01:06:54.951Z,4.17
2023-02-11T01:21:56.424Z,4.87
2023-02-11T01:36:57.880Z,3.90
2023-02-11T01:51:59.356Z,5.43
2023-02-11T02:07:00.812Z,4.80
2023-02-11T02:22:02.287Z,3.97
2023-02-11T02:37:03.807Z,3.20
2023-02-11T02:52:05.429Z,4.17
2023-02-11T03:07:06.941Z,3.97
2023-02-11T03:22:08.460Z,3.57
2023-02-11T03:37:10.055Z,4.73
2023-02-11T03:52:11.538Z,3.30
2023-02-11T04:07:13.057Z,3.07
2023-02-11T04:22:14.554Z,3.27
2023-02-11T04:37:16.092Z,3.47
2023-02-11T04:52:17.577Z,2.90
2023-02-11T05:07:19.080Z,2.43
2023-02-11T05:22:20.588Z,3.07
2023-02-11T05:37:22.219Z,3.57
2023-02-11T05:52:23.800Z,2.57
2023-02-11T06:07:25.283Z,3.37
2023-02-11T06:22:26.770Z,3.63
2023-02-11T06:37:28.362Z,3.40
2023-02-11T06:52:29.858Z,2.70
2023-02-11T07:07:33.892Z,3.87
2023-02-11T07:22:35.638Z,3.33
2023-02-11T07:37:37.270Z,3.17
2023-02-11T07:52:38.768Z,4.10
2023-02-11T08:07:40.236Z,5.57
2023-02-11T08:22:41.744Z,10.33
2023-02-11T08:37:43.205Z,4.80
2023-02-11T08:52:44.675Z,8.20
2023-02-11T09:07:46.137Z,7.80
2023-02-11T09:22:47.590Z,7.87
2023-02-11T09:37:49.080Z,7.30
2023-02-11T09:52:50.618Z,8.77
2023-02-11T10:23:17.343Z,7.73
2023-02-11T10:38:18.821Z,7.53
2023-02-11T10:53:20.329Z,9.10
2023-02-11T11:08:21.832Z,7.90
2023-02-11T11:23:23.307Z,6.13
2023-02-11T11:38:24.838Z,7.30
2023-02-11T11:53:26.313Z,13.27
2023-02-11T12:08:27.838Z,6.07
2023-02-11T12:23:29.346Z,6.23
2023-02-11T12:38:30.954Z,6.43
2023-02-11T12:53:32.427Z,6.10
2023-02-11T13:08:33.990Z,7.43
2023-02-11T13:23:35.469Z,7.90
2023-02-11T13:38:36.998Z,8.03
2023-02-11T13:53:38.476Z,7.63
2023-02-11T14:08:40.053Z,6.23
2023-02-11T14:23:41.584Z,4.83
2023-02-11T14:38:44.281Z,4.63
2023-02-11T14:53:45.737Z,7.40
2023-02-11T15:08:47.189Z,3.83
2023-02-11T15:23:48.644Z,7.87
2023-02-11T15:38:50.232Z,6.53
2023-02-11T15:53:51.721Z,10.37
2023-02-11T16:08:53.246Z,7.63
2023-02-11T16:23:54.724Z,5.40
2023-02-11T16:38:56.201Z,5.57
2023-02-11T16:53:57.658Z,7.00
2023-02-11T17:08:59.141Z,7.80
2023-02-11T17:24:00.616Z,9.27
2023-02-11T17:39:02.093Z,8.90
2023-02-11T17:54:03.548Z,6.33
2023-02-11T18:09:05.010Z,9.87
2023-02-11T18:24:07.300Z,10.30
2023-02-11T18:39:08.875Z,10.10
2023-02-11T18:54:10.365Z,8.97
2023-02-11T19:09:11.825Z,7.97
2023-02-11T19:24:13.293Z,8.77
2023-02-11T19:39:14.771Z,7.70
2023-02-11T19:54:16.228Z,6.53
2023-02-11T20:09:17.697Z,7.63
2023-02-11T20:24:19.160Z,6.17
2023-02-11T20:39:20.636Z,5.30
2023-02-11T20:54:22.108Z,5.43
2023-02-11T21:09:23.562Z,5.63
2023-02-11T21:24:25.035Z,4.97
2023-02-11T21:39:26.507Z,6.40
2023-02-11T21:54:27.990Z,7.23
2023-02-11T22:09:29.485Z,5.07
2023-02-11T23:10:48.087Z,5.27
2023-02-11T23:25:49.577Z,5.70
2023-02-11T23:40:51.070Z,7.47
2023-02-11T23:55:52.754Z,5.27
